Station Historical Data
Daily Summary for August 1, 2017 Units:  English    Metric   Both
« Previous Day
Next Day »
Daily Weekly Monthly Yearly Custom
  High: Low: Average:
Temperature: 88.5 °F 66.6 °F 75.6 °F
Dew Point: 66.0 °F 57.1 °F 61.9 °F
Humidity: 89% 36% 65%
Wind Speed: 9.2mph 0.0mph 7mph
Wind Gust: 9.2mph - -
Wind- - SSW
Pressure: 30.12 in 30.04 in -
Precipitation: 0.04 in    
Historical Graphs
 
 
Tabular Data for August 1, 2017
Time Temperature Dew Point Pressure Wind Wind Speed Wind Gust Humidity Rainfall Rate (Hourly) Conditions
00:01 69.9 °F 62.7 °F 30.08 in ENE 5.1 mph   78% 0.00 in FEW
00:06 69.8 °F 63.0 °F 30.08 in ENE 5.1 mph   79% 0.00 in FEW
00:11 69.6 °F 62.8 °F 30.08 in ENE 5.1 mph   79% 0.00 in FEW
00:16 69.4 °F 62.6 °F 30.07 in ENE 5.1 mph   79% 0.00 in FEW
00:21 69.3 °F 62.5 °F 30.07 in ENE 5.1 mph   79% 0.00 in CLR
00:26 69.2 °F 62.8 °F 30.08 in ENE 5.1 mph   80% 0.00 in CLR
00:31 69.1 °F 62.7 °F 30.08 in ENE 5.1 mph   80% 0.00 in CLR
00:36 68.1 °F 61.3 °F 30.08 in ENE 5.1 mph   79% 0.00 in CLR
00:41 68.1 °F 61.3 °F 30.08 in ENE 5.1 mph   79% 0.00 in CLR
00:46 68.1 °F 61.3 °F 30.08 in North 5.1 mph   79% 0.00 in CLR
00:51 68.1 °F 61.3 °F 30.08 in North 5.1 mph   79% 0.00 in CLR
00:56 68.1 °F 61.3 °F 30.08 in North 5.1 mph   79% 0.00 in CLR
01:01 68.1 °F 61.3 °F 30.08 in North 5.1 mph   79% 0.00 in CLR
01:07 68.1 °F 61.3 °F 30.08 in North 5.1 mph   79% 0.00 in CLR
01:12 68.1 °F 61.3 °F 30.08 in North 5.1 mph   79% 0.00 in CLR
01:17 68.1 °F 61.3 °F 30.08 in North 5.1 mph   79% 0.00 in CLR
01:22 68.1 °F 61.3 °F 30.08 in North 5.1 mph   79% 0.00 in CLR
01:27 68.1 °F 61.3 °F 30.08 in North 5.1 mph   79% 0.00 in CLR
01:32 68.1 °F 61.3 °F 30.08 in North 5.1 mph   79% 0.00 in CLR
01:37 68.1 °F 61.3 °F 30.08 in North 5.1 mph   79% 0.00 in CLR
01:42 68.1 °F 61.3 °F 30.08 in North 5.1 mph   79% 0.00 in CLR
01:47 68.1 °F 61.3 °F 30.08 in North 5.1 mph   79% 0.00 in CLR
01:52 68.1 °F 61.3 °F 30.08 in North 5.1 mph   79% 0.00 in CLR
01:57 68.1 °F 61.3 °F 30.08 in North 5.1 mph   79% 0.00 in CLR
02:02 68.1 °F 61.3 °F 30.08 in North 5.1 mph   79% 0.00 in CLR
02:07 68.1 °F 61.3 °F 30.08 in North 5.1 mph   79% 0.00 in CLR
02:12 68.1 °F 61.3 °F 30.08 in North 5.1 mph   79% 0.00 in CLR
02:18 68.1 °F 61.3 °F 30.08 in North 5.1 mph   79% 0.00 in CLR
02:23 68.1 °F 61.3 °F 30.08 in North 5.1 mph   79% 0.00 in CLR
02:28 68.1 °F 61.3 °F 30.07 in North 5.1 mph   79% 0.00 in CLR
02:33 68.1 °F 61.3 °F 30.07 in North 5.1 mph   79% 0.00 in CLR
02:38 68.1 °F 61.3 °F 30.07 in North 5.1 mph   79% 0.00 in CLR
02:43 68.1 °F 61.3 °F 30.07 in North 5.1 mph   79% 0.00 in CLR
02:48 68.1 °F 61.3 °F 30.07 in North 5.1 mph   79% 0.00 in CLR
02:53 68.1 °F 61.3 °F 30.07 in North 5.1 mph   79% 0.00 in CLR
02:58 68.1 °F 61.3 °F 30.07 in North 5.1 mph   79% 0.00 in CLR
03:03 68.1 °F 61.3 °F 30.07 in North 5.1 mph   79% 0.00 in CLR
03:08 68.1 °F 61.3 °F 30.07 in North 5.1 mph   79% 0.00 in CLR
03:13 68.1 °F 61.3 °F 30.07 in North 5.1 mph   79% 0.00 in CLR
03:18 68.1 °F 61.3 °F 30.07 in North 5.1 mph   79% 0.00 in CLR
03:23 68.1 °F 61.3 °F 30.07 in North 5.1 mph   79% 0.00 in CLR
03:28 68.1 °F 61.3 °F 30.07 in North 5.1 mph   79% 0.00 in CLR
03:33 68.1 °F 61.3 °F 30.07 in North 5.1 mph   79% 0.00 in CLR
03:38 68.1 °F 61.3 °F 30.07 in North 5.1 mph   79% 0.00 in CLR
03:43 68.1 °F 61.3 °F 30.06 in North 5.1 mph   79% 0.00 in CLR
03:48 68.1 °F 61.3 °F 30.06 in North 5.1 mph   79% 0.00 in CLR
03:54 68.1 °F 61.3 °F 30.06 in North 5.1 mph   79% 0.00 in CLR
03:59 68.1 °F 61.3 °F 30.06 in North 5.1 mph   79% 0.00 in CLR
04:04 68.1 °F 61.3 °F 30.06 in North 5.1 mph   79% 0.00 in CLR
04:09 68.1 °F 61.3 °F 30.07 in North 5.1 mph   79% 0.00 in CLR
04:14 68.1 °F 61.3 °F 30.07 in North 5.1 mph   79% 0.00 in CLR
04:19 68.1 °F 61.3 °F 30.07 in North 5.1 mph   79% 0.00 in CLR
04:24 68.1 °F 61.3 °F 30.07 in North 5.1 mph   79% 0.00 in CLR
04:29 68.1 °F 61.3 °F 30.07 in North 5.1 mph   79% 0.00 in CLR
04:34 68.1 °F 61.3 °F 30.07 in North 5.1 mph   79% 0.00 in CLR
04:39 68.1 °F 61.3 °F 30.07 in North 5.1 mph   79% 0.00 in CLR
04:44 68.1 °F 61.3 °F 30.07 in North 5.1 mph   79% 0.00 in CLR
04:49 68.1 °F 61.3 °F 30.07 in North 5.1 mph   79% 0.00 in CLR
04:54 68.1 °F 61.3 °F 30.07 in North 5.1 mph   79% 0.00 in CLR
04:59 68.1 °F 61.3 °F 30.07 in North 5.1 mph   79% 0.00 in CLR
05:04 68.1 °F 61.3 °F 30.07 in North 5.1 mph   79% 0.00 in CLR
05:09 68.1 °F 61.3 °F 30.07 in North 5.1 mph   79% 0.00 in CLR
05:14 68.1 °F 61.3 °F 30.07 in North 5.1 mph   79% 0.00 in CLR
05:19 68.1 °F 61.3 °F 30.07 in North 5.1 mph   79% 0.00 in CLR
05:25 68.1 °F 61.3 °F 30.07 in North 5.1 mph   79% 0.00 in CLR
05:30 68.1 °F 61.3 °F 30.07 in North 5.1 mph   79% 0.00 in CLR
05:35 68.1 °F 61.3 °F 30.07 in Calm     79% 0.00 in CLR
05:40 68.1 °F 61.3 °F 30.07 in Calm     79% 0.00 in CLR
05:45 68.1 °F 61.3 °F 30.08 in Calm     79% 0.00 in CLR
05:50 68.1 °F 61.3 °F 30.08 in Calm     79% 0.00 in CLR
05:55 68.1 °F 61.3 °F 30.08 in Calm     79% 0.00 in CLR
06:00 68.1 °F 61.3 °F 30.08 in Calm     79% 0.00 in CLR
06:05 68.1 °F 61.3 °F 30.08 in Calm     79% 0.00 in CLR
06:10 68.1 °F 61.3 °F 30.08 in Calm     79% 0.00 in CLR
06:15 68.1 °F 61.3 °F 30.08 in Calm     79% 0.00 in CLR
06:20 68.1 °F 61.3 °F 30.08 in Calm     79% 0.00 in CLR
06:25 68.1 °F 61.3 °F 30.08 in Calm     79% 0.00 in CLR
06:30 68.1 °F 61.3 °F 30.08 in Calm     79% 0.00 in CLR
06:35 68.1 °F 61.3 °F 30.08 in Calm     79% 0.00 in CLR
06:40 68.1 °F 61.3 °F 30.08 in Calm     79% 0.00 in CLR
06:45 68.1 °F 61.3 °F 30.08 in Calm     79% 0.00 in CLR
06:50 68.1 °F 61.3 °F 30.08 in North 5.1 mph   79% 0.00 in CLR
06:55 68.1 °F 61.3 °F 30.08 in Calm     79% 0.00 in CLR
07:00 68.1 °F 61.3 °F 30.08 in North 5.1 mph   79% 0.00 in CLR
07:01 68.1 °F 61.3 °F 30.08 in North 5.1 mph   79% 0.00 in CLR
07:06 68.1 °F 61.3 °F 30.08 in North 5.1 mph   79% 0.00 in CLR
07:11 68.1 °F 61.3 °F 30.09 in North 5.1 mph   79% 0.00 in CLR
07:16 68.1 °F 61.3 °F 30.09 in North 5.1 mph   79% 0.00 in CLR
07:21 68.1 °F 61.3 °F 30.09 in North 5.1 mph   79% 0.00 in BKN
07:26 68.1 °F 61.3 °F 30.09 in North 5.1 mph   79% 0.00 in BKN
07:31 68.1 °F 61.3 °F 30.09 in North 5.1 mph   79% 0.00 in BKN
07:36 68.1 °F 61.3 °F 30.09 in North 5.1 mph   79% 0.00 in BKN
07:41 68.1 °F 61.3 °F 30.09 in North 5.1 mph   79% 0.00 in BKN
07:46 68.1 °F 61.3 °F 30.09 in North 5.1 mph   79% 0.00 in BKN
07:51 68.1 °F 61.3 °F 30.09 in North 5.1 mph   79% 0.00 in BKN
07:56 68.1 °F 61.3 °F 30.09 in North 5.1 mph   79% 0.00 in BKN
08:01 68.1 °F 61.3 °F 30.10 in North 5.1 mph   79% 0.00 in BKN
08:07 68.1 °F 61.3 °F 30.10 in North 5.1 mph   79% 0.00 in BKN
08:12 68.1 °F 61.3 °F 30.10 in North 5.1 mph   79% 0.00 in BKN
08:17 66.6 °F 63.3 °F 30.10 in ENE 5.1 mph   89% 0.00 in BKN
08:22 67.0 °F 63.3 °F 30.10 in ENE 5.1 mph   88% 0.00 in BKN
08:27 67.4 °F 63.4 °F 30.10 in ENE 5.1 mph   87% 0.00 in BKN
08:32 67.9 °F 63.9 °F 30.10 in ENE 5.1 mph   87% 0.00 in BKN
08:37 68.3 °F 63.9 °F 30.10 in ENE 5.1 mph   86% 0.00 in BKN
08:42 68.6 °F 63.9 °F 30.10 in ENE 5.1 mph   85% 0.00 in BKN
08:47 69.0 °F 64.0 °F 30.10 in ENE 5.1 mph   84% 0.00 in BKN
08:52 69.4 °F 64.0 °F 30.11 in ENE 5.1 mph   83% 0.00 in BKN
08:57 69.8 °F 64.4 °F 30.10 in ENE 5.1 mph   83% 0.00 in BKN
09:02 70.3 °F 65.2 °F 30.10 in ENE 5.1 mph   84% 0.00 in BKN
09:07 70.9 °F 64.4 °F 30.10 in NE 5.1 mph   80% 0.00 in BKN
09:12 71.6 °F 65.1 °F 30.10 in NE 5.1 mph   80% 0.00 in BKN
09:17 72.1 °F 64.9 °F 30.11 in NE 5.1 mph   78% 0.00 in BKN
09:22 72.5 °F 64.9 °F 30.11 in NE 5.1 mph   77% 0.00 in BKN
09:28 73.0 °F 65.7 °F 30.11 in NE 5.1 mph   78% 0.00 in BKN
09:33 73.4 °F 64.6 °F 30.11 in NE 5.1 mph   74% 0.00 in BKN
09:38 73.6 °F 64.8 °F 30.11 in NNE 5.1 mph   74% 0.00 in BKN
09:43 73.8 °F 65.4 °F 30.11 in NNE 5.1 mph   75% 0.00 in BKN
09:48 74.1 °F 66.0 °F 30.11 in NNE 5.1 mph   76% 0.00 in BKN
09:53 74.4 °F 66.0 °F 30.12 in NNE 5.1 mph   75% 0.00 in BKN
09:58 74.5 °F 65.3 °F 30.12 in NNE 5.1 mph   73% 0.00 in BKN
10:03 74.6 °F 65.0 °F 30.12 in North 5.1 mph   72% 0.00 in BKN
10:08 74.9 °F 64.9 °F 30.12 in North 5.1 mph   71% 0.00 in BKN
10:13 75.3 °F 64.8 °F 30.12 in NW 5.1 mph   70% 0.00 in BKN
10:18 75.9 °F 65.4 °F 30.12 in NW 5.1 mph   70% 0.00 in BKN
10:23 76.3 °F 65.4 °F 30.12 in NNE 5.1 mph 5.1 mph 69% 0.00 in BKN
10:28 76.5 °F 64.7 °F 30.12 in NNW 5.1 mph   67% 0.00 in BKN
10:33 76.8 °F 65.0 °F 30.12 in NNW 5.1 mph   67% 0.00 in BKN
10:38 77.4 °F 64.3 °F 30.12 in NNW 5.1 mph   64% 0.00 in BKN
10:42 77.8 °F 64.2 °F 30.11 in NNW 5.1 mph   63% 0.00 in BKN
10:47 78.5 °F 63.5 °F 30.12 in East 5.1 mph   60% 0.00 in BKN
10:52 78.7 °F 64.6 °F 30.12 in ENE 5.1 mph 5.1 mph 62% 0.00 in BKN
10:57 78.9 °F 64.8 °F 30.12 in SSE 9.2 mph 9.2 mph 62% 0.00 in BKN
11:02 79.3 °F 65.1 °F 30.12 in SSE 9.2 mph   62% 0.00 in BKN
11:07 79.7 °F 64.6 °F 30.11 in ESE 9.2 mph 9.2 mph 60% 0.00 in BKN
11:12 80.0 °F 63.4 °F 30.11 in ESE 9.2 mph 9.2 mph 57% 0.00 in BKN
11:17 80.3 °F 65.6 °F 30.11 in ESE 9.2 mph   61% 0.00 in BKN
11:22 80.6 °F 64.9 °F 30.11 in NW 9.2 mph 9.2 mph 59% 0.00 in SCT
11:28 80.9 °F 65.2 °F 30.11 in ENE 9.2 mph   59% 0.04 in RA
11:33 81.0 °F 63.8 °F 30.11 in ENE 9.2 mph   56% 0.04 in SCT
11:38 81.0 °F 63.3 °F 30.11 in NW 9.2 mph   55% 0.04 in SCT
11:43 80.9 °F 61.6 °F 30.11 in West 9.2 mph   52% 0.04 in SCT
11:48 81.0 °F 61.7 °F 30.11 in West 9.2 mph 9.2 mph 52% 0.04 in SCT
11:53 81.1 °F 59.6 °F 30.11 in SW 9.2 mph 9.2 mph 48% 0.04 in SCT
11:58 81.2 °F 61.4 °F 30.11 in SW 9.2 mph   51% 0.04 in SCT
12:03 81.3 °F 62.5 °F 30.11 in North 9.2 mph   53% 0.04 in SCT
12:08 81.5 °F 62.7 °F 30.11 in NW 9.2 mph   53% 0.04 in SCT
12:13 81.9 °F 62.0 °F 30.11 in West 9.2 mph   51% 0.04 in SCT
12:18 82.1 °F 62.2 °F 30.11 in West 9.2 mph   51% 0.04 in SCT
12:23 82.3 °F 58.8 °F 30.12 in SSW 9.2 mph 9.2 mph 45% 0.04 in SCT
12:28 82.3 °F 60.6 °F 30.11 in West 9.2 mph 9.2 mph 48% 0.00 in SCT
12:33 82.7 °F 60.4 °F 30.12 in WSW 9.2 mph   47% 0.00 in SCT
12:38 83.2 °F 60.9 °F 30.11 in NW 9.2 mph   47% 0.00 in SCT
12:43 83.5 °F 60.5 °F 30.11 in NNW 9.2 mph 9.2 mph 46% 0.00 in SCT
12:48 84.0 °F 61.0 °F 30.11 in NNW 9.2 mph 9.2 mph 46% 0.00 in SCT
12:53 84.8 °F 61.1 °F 30.11 in NNW 9.2 mph   45% 0.00 in SCT
12:59 85.7 °F 60.6 °F 30.11 in NNW 9.2 mph   43% 0.00 in SCT
13:04 86.0 °F 61.5 °F 30.11 in West 9.2 mph   44% 0.00 in SCT
13:09 86.5 °F 62.0 °F 30.11 in NNW 9.2 mph 9.2 mph 44% 0.00 in SCT
13:10 86.7 °F 61.5 °F 30.11 in NNW 9.2 mph   43% 0.00 in SCT
13:15 87.1 °F 62.5 °F 30.11 in NNW 9.2 mph   44% 0.00 in SCT
13:20 87.3 °F 61.4 °F 30.10 in NW 9.2 mph 9.2 mph 42% 0.00 in BKN
13:25 87.5 °F 59.5 °F 30.10 in West 9.2 mph 9.2 mph 39% 0.00 in BKN
13:30 87.6 °F 61.0 °F 30.10 in West 9.2 mph   41% 0.00 in BKN
13:35 88.1 °F 59.3 °F 30.10 in NW 9.2 mph   38% 0.00 in BKN
13:40 88.3 °F 62.3 °F 30.10 in WNW 9.2 mph   42% 0.00 in BKN
13:45 87.8 °F 60.5 °F 30.10 in WNW 9.2 mph   40% 0.00 in BKN
13:50 88.0 °F 59.9 °F 30.09 in WNW 9.2 mph 9.2 mph 39% 0.00 in BKN
13:55 88.1 °F 60.0 °F 30.09 in WNW 9.2 mph 9.2 mph 39% 0.00 in BKN
14:00 88.2 °F 60.1 °F 30.09 in WNW 9.2 mph   39% 0.00 in BKN
14:05 88.5 °F 58.1 °F 30.09 in NNW 9.2 mph 9.2 mph 36% 0.00 in BKN
14:10 88.1 °F 60.7 °F 30.09 in NW 9.2 mph 9.2 mph 40% 0.00 in BKN
14:15 88.1 °F 60.0 °F 30.09 in WNW 9.2 mph   39% 0.00 in BKN
14:20 88.1 °F 60.7 °F 30.09 in NW 9.2 mph 9.2 mph 40% 0.00 in BKN
14:26 87.4 °F 58.7 °F 30.08 in NNW 9.2 mph   38% 0.00 in BKN
14:31 87.4 °F 58.7 °F 30.08 in NNW 9.2 mph   38% 0.00 in BKN
14:36 87.2 °F 59.9 °F 30.08 in WNW 9.2 mph 9.2 mph 40% 0.00 in BKN
14:41 86.7 °F 58.8 °F 30.08 in West 9.2 mph   39% 0.00 in BKN
14:46 86.1 °F 59.6 °F 30.08 in West 9.2 mph   41% 0.00 in BKN
14:51 85.4 °F 57.6 °F 30.08 in ENE 9.2 mph 9.2 mph 39% 0.00 in BKN
14:56 85.2 °F 58.8 °F 30.08 in West 9.2 mph 9.2 mph 41% 0.00 in BKN
15:01 85.0 °F 58.0 °F 30.08 in NNW 9.2 mph 9.2 mph 40% 0.00 in BKN
15:04 84.8 °F 57.1 °F 30.07 in NNW 9.2 mph   39% 0.00 in BKN
15:09 84.6 °F 57.6 °F 30.07 in NNW 9.2 mph 9.2 mph 40% 0.00 in BKN
15:14 84.7 °F 60.4 °F 30.07 in NW 9.2 mph   44% 0.00 in BKN
15:19 84.8 °F 59.2 °F 30.07 in NW 9.2 mph   42% 0.00 in BKN
15:24 84.6 °F 59.0 °F 30.07 in NW 9.2 mph   42% 0.00 in BKN
15:29 84.1 °F 57.9 °F 30.07 in NW 9.2 mph   41% 0.00 in BKN
15:34 83.8 °F 60.8 °F 30.06 in NW 9.2 mph   46% 0.00 in BKN
15:39 83.5 °F 61.7 °F 30.07 in NW 9.2 mph   48% 0.00 in BKN
15:44 83.0 °F 62.4 °F 30.06 in NW 9.2 mph   50% 0.00 in BKN
15:49 82.7 °F 62.2 °F 30.06 in NW 9.2 mph   50% 0.00 in BKN
15:54 82.6 °F 63.7 °F 30.06 in NW 9.2 mph   53% 0.00 in BKN
16:00 82.9 °F 62.9 °F 30.06 in NW 9.2 mph   51% 0.00 in BKN
16:05 83.2 °F 60.3 °F 30.06 in NNW 9.2 mph   46% 0.00 in BKN
16:08 83.3 °F 61.0 °F 30.06 in NNW 9.2 mph   47% 0.00 in BKN
16:09 83.2 °F 60.9 °F 30.06 in NNW 9.2 mph   47% 0.00 in BKN
16:10 83.2 °F 60.9 °F 30.06 in NNW 9.2 mph   47% 0.00 in BKN
16:12 83.0 °F 60.1 °F 30.06 in NNW 9.2 mph   46% 0.00 in BKN
16:14 83.0 °F 61.3 °F 30.06 in NNW 9.2 mph   48% 0.00 in BKN
16:18 82.9 °F 63.5 °F 30.05 in NNW 9.2 mph   52% 0.00 in BKN
16:19 82.9 °F 62.9 °F 30.05 in NNW 9.2 mph   51% 0.00 in BKN
16:24 82.8 °F 63.9 °F 30.05 in NNW 9.2 mph   53% 0.00 in BKN
16:29 83.0 °F 63.0 °F 30.05 in NNW 9.2 mph   51% 0.00 in BKN
16:34 83.4 °F 62.2 °F 30.05 in North 9.2 mph   49% 0.00 in BKN
16:39 83.6 °F 60.6 °F 30.05 in North 9.2 mph   46% 0.00 in BKN
16:44 83.6 °F 59.4 °F 30.05 in North 9.2 mph   44% 0.00 in BKN
16:49 83.8 °F 61.4 °F 30.05 in North 9.2 mph   47% 0.00 in BKN
16:54 83.9 °F 60.3 °F 30.05 in NNE 9.2 mph   45% 0.00 in BKN
16:59 83.9 °F 60.9 °F 30.05 in WNW 9.2 mph   46% 0.00 in BKN
17:04 84.0 °F 61.0 °F 30.05 in WNW 9.2 mph   46% 0.00 in BKN
17:09 83.9 °F 61.5 °F 30.05 in NNW 9.2 mph   47% 0.00 in BKN
17:14 83.6 °F 61.8 °F 30.05 in NNW 9.2 mph   48% 0.00 in BKN
17:19 83.4 °F 61.7 °F 30.05 in NNW 9.2 mph   48% 0.00 in BKN
17:24 83.2 °F 62.1 °F 30.05 in NNW 9.2 mph   49% 0.00 in BKN
17:29 83.3 °F 61.6 °F 30.05 in NNW 9.2 mph   48% 0.00 in BKN
17:34 83.4 °F 63.4 °F 30.05 in NNW 9.2 mph   51% 0.00 in BKN
17:39 83.4 °F 61.1 °F 30.05 in NNW 9.2 mph   47% 0.00 in BKN
17:44 83.3 °F 61.0 °F 30.05 in NNW 9.2 mph   47% 0.00 in BKN
17:49 83.2 °F 59.6 °F 30.04 in NNW 9.2 mph   45% 0.00 in BKN
17:55 83.2 °F 61.5 °F 30.05 in NNW 9.2 mph   48% 0.00 in BKN
18:00 82.8 °F 62.8 °F 30.05 in NNW 9.2 mph   51% 0.00 in BKN
18:05 81.9 °F 63.1 °F 30.05 in Calm     53% 0.00 in BKN
18:10 81.3 °F 62.6 °F 30.05 in Calm     53% 0.00 in BKN
18:15 81.2 °F 63.0 °F 30.05 in NNW 9.2 mph   54% 0.00 in BKN
18:20 82.0 °F 63.7 °F 30.05 in NNW 9.2 mph   54% 0.00 in BKN
18:25 82.9 °F 61.8 °F 30.05 in NNW 9.2 mph   49% 0.00 in BKN
18:30 82.7 °F 62.7 °F 30.04 in NNW 9.2 mph   51% 0.00 in BKN
18:35 82.1 °F 62.2 °F 30.04 in NNW 9.2 mph   51% 0.00 in BKN
18:40 81.6 °F 62.3 °F 30.04 in North 9.2 mph   52% 0.00 in BKN
18:45 81.2 °F 61.9 °F 30.04 in North 9.2 mph   52% 0.00 in BKN
18:50 80.8 °F 61.5 °F 30.04 in North 9.2 mph   52% 0.00 in BKN
18:55 80.3 °F 61.6 °F 30.04 in North 9.2 mph   53% 0.00 in BKN
19:00 80.0 °F 61.3 °F 30.04 in North 9.2 mph   53% 0.00 in BKN
19:05 79.9 °F 61.8 °F 30.04 in North 9.2 mph   54% 0.00 in BKN
19:10 79.8 °F 61.1 °F 30.05 in North 9.2 mph   53% 0.00 in BKN
19:15 79.6 °F 60.4 °F 30.05 in North 9.2 mph   52% 0.00 in BKN
19:20 79.5 °F 60.3 °F 30.05 in North 9.2 mph   52% 0.00 in SCT
19:25 79.2 °F 60.6 °F 30.05 in North 9.2 mph   53% 0.00 in SCT
19:31 78.9 °F 60.3 °F 30.05 in North 9.2 mph   53% 0.00 in SCT
19:36 78.8 °F 61.3 °F 30.05 in North 9.2 mph   55% 0.00 in SCT
19:41 78.5 °F 60.5 °F 30.05 in North 9.2 mph   54% 0.00 in SCT
19:46 78.2 °F 60.7 °F 30.05 in North 9.2 mph   55% 0.00 in SCT
19:51 77.9 °F 60.9 °F 30.05 in North 9.2 mph   56% 0.00 in SCT
19:56 77.6 °F 61.2 °F 30.05 in North 9.2 mph   57% 0.00 in SCT
20:01 77.4 °F 61.5 °F 30.05 in North 9.2 mph   58% 0.00 in SCT
20:06 77.2 °F 61.3 °F 30.05 in North 9.2 mph   58% 0.00 in SCT
20:11 77.0 °F 61.6 °F 30.05 in North 9.2 mph   59% 0.00 in SCT
20:16 76.8 °F 61.9 °F 30.06 in North 9.2 mph   60% 0.00 in SCT
20:21 76.6 °F 62.1 °F 30.05 in North 9.2 mph   61% 0.00 in SCT
20:26 76.4 °F 62.0 °F 30.05 in North 9.2 mph   61% 0.00 in SCT
20:31 76.2 °F 61.3 °F 30.05 in North 9.2 mph   60% 0.00 in SCT
20:36 76.1 °F 61.2 °F 30.05 in North 9.2 mph   60% 0.00 in SCT
20:41 76.0 °F 61.6 °F 30.05 in North 9.2 mph   61% 0.00 in SCT
20:47 75.9 °F 62.4 °F 30.05 in North 9.2 mph   63% 0.00 in SCT
20:52 75.8 °F 62.8 °F 30.05 in North 9.2 mph   64% 0.00 in SCT
20:57 75.6 °F 62.6 °F 30.05 in North 9.2 mph   64% 0.00 in SCT
21:02 75.4 °F 61.9 °F 30.05 in North 9.2 mph   63% 0.00 in SCT
21:07 75.3 °F 62.3 °F 30.05 in North 9.2 mph   64% 0.00 in SCT
21:12 75.1 °F 61.6 °F 30.06 in North 9.2 mph   63% 0.00 in SCT
21:17 75.0 °F 62.0 °F 30.06 in North 9.2 mph   64% 0.00 in SCT
21:22 74.8 °F 62.7 °F 30.06 in North 9.2 mph   66% 0.00 in BKN
21:27 74.7 °F 62.6 °F 30.06 in North 9.2 mph   66% 0.00 in BKN
21:32 74.6 °F 62.5 °F 30.06 in North 9.2 mph   66% 0.00 in BKN
21:37 74.5 °F 62.8 °F 30.06 in North 9.2 mph   67% 0.00 in BKN
21:42 74.4 °F 62.3 °F 30.06 in North 9.2 mph   66% 0.00 in BKN
21:47 74.2 °F 63.0 °F 30.06 in North 9.2 mph   68% 0.00 in BKN
21:52 74.2 °F 63.8 °F 30.06 in North 9.2 mph   70% 0.00 in BKN
21:57 74.0 °F 63.2 °F 30.07 in North 9.2 mph   69% 0.00 in BKN
22:02 73.9 °F 63.5 °F 30.06 in North 9.2 mph   70% 0.00 in BKN
22:08 73.8 °F 63.4 °F 30.07 in North 9.2 mph   70% 0.00 in BKN
22:13 73.7 °F 62.5 °F 30.07 in North 9.2 mph   68% 0.00 in BKN
22:18 73.7 °F 62.5 °F 30.07 in North 9.2 mph   68% 0.00 in BKN
22:23 73.7 °F 62.5 °F 30.08 in North 9.2 mph   68% 0.00 in BKN
22:28 73.7 °F 63.3 °F 30.08 in North 9.2 mph   70% 0.00 in BKN
22:33 73.6 °F 62.4 °F 30.08 in North 9.2 mph   68% 0.00 in BKN
22:38 73.6 °F 63.2 °F 30.08 in North 9.2 mph   70% 0.00 in BKN
22:43 73.6 °F 63.2 °F 30.08 in North 9.2 mph   70% 0.00 in BKN
22:48 73.5 °F 63.5 °F 30.08 in North 9.2 mph   71% 0.00 in BKN
22:53 73.5 °F 63.1 °F 30.09 in North 9.2 mph   70% 0.00 in BKN
22:58 73.4 °F 63.0 °F 30.09 in North 9.2 mph   70% 0.00 in BKN
23:03 73.3 °F 63.3 °F 30.09 in North 9.2 mph   71% 0.00 in BKN
23:08 73.2 °F 62.8 °F 30.09 in North 9.2 mph   70% 0.00 in BKN
23:09 73.2 °F 63.2 °F 30.09 in North 9.2 mph   71% 0.00 in BKN
23:14 73.1 °F 62.7 °F 30.09 in North 9.2 mph   70% 0.00 in BKN
23:19 73.1 °F 63.1 °F 30.09 in North 9.2 mph   71% 0.00 in BKN
23:24 73.0 °F 63.4 °F 30.09 in North 9.2 mph   72% 0.00 in BKN
23:29 73.0 °F 63.4 °F 30.09 in North 9.2 mph   72% 0.00 in BKN
23:34 72.9 °F 63.7 °F 30.08 in North 9.2 mph   73% 0.00 in BKN
23:39 72.7 °F 63.5 °F 30.08 in North 9.2 mph   73% 0.00 in BKN
23:44 72.6 °F 63.4 °F 30.08 in North 9.2 mph   73% 0.00 in BKN
23:49 72.5 °F 63.7 °F 30.08 in North 9.2 mph   74% 0.00 in BKN
23:55 72.5 °F 63.7 °F 30.08 in North 9.2 mph   74% 0.00 in BKN
Piedmont Bend
Compliments of Weather Underground - 4 mb